sensor_id;sensor_type;location;lat;lon;timestamp;pressure;altitude;pressure_sealevel;temperature;humidity
6423;BME280;3244;42.708;23.288;2023-06-19T00:00:42;95115.16;;;18.64;81.22
6423;BME280;3244;42.708;23.288;2023-06-19T00:03:08;95108.53;;;18.60;81.38
6423;BME280;3244;42.708;23.288;2023-06-19T00:05:35;95111.75;;;18.64;80.18
6423;BME280;3244;42.708;23.288;2023-06-19T00:08:02;95115.38;;;18.74;79.03
6423;BME280;3244;42.708;23.288;2023-06-19T00:10:31;95110.44;;;18.57;80.51
6423;BME280;3244;42.708;23.288;2023-06-19T00:12:59;95110.72;;;18.40;82.62
6423;BME280;3244;42.708;23.288;2023-06-19T00:15:26;95112.00;;;18.32;82.99
6423;BME280;3244;42.708;23.288;2023-06-19T00:17:55;95099.75;;;18.23;83.80
6423;BME280;3244;42.708;23.288;2023-06-19T00:20:22;95103.97;;;18.24;82.78
6423;BME280;3244;42.708;23.288;2023-06-19T00:22:49;95097.25;;;18.22;83.17
6423;BME280;3244;42.708;23.288;2023-06-19T00:25:17;95101.03;;;18.30;82.68
6423;BME280;3244;42.708;23.288;2023-06-19T00:27:43;95104.09;;;18.35;81.69
6423;BME280;3244;42.708;23.288;2023-06-19T00:30:12;95098.47;;;18.43;81.16
6423;BME280;3244;42.708;23.288;2023-06-19T00:32:38;95101.50;;;18.50;80.61
6423;BME280;3244;42.708;23.288;2023-06-19T00:35:12;95097.81;;;18.54;80.57
6423;BME280;3244;42.708;23.288;2023-06-19T00:37:39;95092.34;;;18.58;79.99
6423;BME280;3244;42.708;23.288;2023-06-19T00:40:14;95084.56;;;18.60;80.57
6423;BME280;3244;42.708;23.288;2023-06-19T00:42:43;95090.28;;;18.51;80.27
6423;BME280;3244;42.708;23.288;2023-06-19T00:45:10;95094.50;;;18.52;80.70
6423;BME280;3244;42.708;23.288;2023-06-19T00:47:38;95084.78;;;18.43;81.16
6423;BME280;3244;42.708;23.288;2023-06-19T00:50:05;95092.06;;;18.36;80.90
6423;BME280;3244;42.708;23.288;2023-06-19T00:52:33;95088.81;;;18.47;80.62
6423;BME280;3244;42.708;23.288;2023-06-19T00:55:00;95078.34;;;18.50;80.28
6423;BME280;3244;42.708;23.288;2023-06-19T00:57:27;95075.94;;;18.47;80.73
6423;BME280;3244;42.708;23.288;2023-06-19T00:59:55;95071.38;;;18.38;80.89
6423;BME280;3244;42.708;23.288;2023-06-19T01:02:22;95066.13;;;18.26;81.14
6423;BME280;3244;42.708;23.288;2023-06-19T01:04:50;95069.78;;;18.22;81.00
6423;BME280;3244;42.708;23.288;2023-06-19T01:07:22;95056.00;;;18.23;81.07
6423;BME280;3244;42.708;23.288;2023-06-19T01:09:57;95065.31;;;18.12;82.13
6423;BME280;3244;42.708;23.288;2023-06-19T01:12:33;95070.56;;;18.10;82.07
6423;BME280;3244;42.708;23.288;2023-06-19T01:15:04;95058.72;;;17.81;84.40
6423;BME280;3244;42.708;23.288;2023-06-19T01:17:32;95056.47;;;17.60;85.27
6423;BME280;3244;42.708;23.288;2023-06-19T01:20:00;95063.69;;;17.55;85.42
6423;BME280;3244;42.708;23.288;2023-06-19T01:22:33;95062.75;;;17.42;86.24
6423;BME280;3244;42.708;23.288;2023-06-19T01:25:00;95060.47;;;17.52;84.09
6423;BME280;3244;42.708;23.288;2023-06-19T01:27:27;95059.06;;;17.60;84.54
6423;BME280;3244;42.708;23.288;2023-06-19T01:29:56;95056.31;;;17.63;83.93
6423;BME280;3244;42.708;23.288;2023-06-19T01:32:26;95066.44;;;17.66;83.51
6423;BME280;3244;42.708;23.288;2023-06-19T01:34:58;95067.72;;;17.45;85.32
6423;BME280;3244;42.708;23.288;2023-06-19T01:37:28;95071.72;;;17.35;86.02
6423;BME280;3244;42.708;23.288;2023-06-19T01:40:02;95077.63;;;17.23;86.92
6423;BME280;3244;42.708;23.288;2023-06-19T01:42:35;95079.44;;;17.21;87.31
6423;BME280;3244;42.708;23.288;2023-06-19T01:45:05;95084.94;;;17.15;87.61
6423;BME280;3244;42.708;23.288;2023-06-19T01:47:32;95083.63;;;17.08;88.34
6423;BME280;3244;42.708;23.288;2023-06-19T01:49:58;95077.41;;;16.97;89.30
6423;BME280;3244;42.708;23.288;2023-06-19T01:52:26;95085.53;;;16.90;89.77
6423;BME280;3244;42.708;23.288;2023-06-19T01:54:52;95080.50;;;16.88;90.08
6423;BME280;3244;42.708;23.288;2023-06-19T01:57:20;95078.31;;;16.82;90.32
6423;BME280;3244;42.708;23.288;2023-06-19T01:59:47;95085.19;;;16.82;90.38
6423;BME280;3244;42.708;23.288;2023-06-19T02:02:14;95086.91;;;16.81;90.55
6423;BME280;3244;42.708;23.288;2023-06-19T02:04:41;95068.25;;;16.63;91.18
6423;BME280;3244;42.708;23.288;2023-06-19T02:07:07;95083.03;;;16.74;91.20
6423;BME280;3244;42.708;23.288;2023-06-19T02:09:34;95087.59;;;16.69;91.41
6423;BME280;3244;42.708;23.288;2023-06-19T02:12:01;95085.94;;;16.68;91.50
6423;BME280;3244;42.708;23.288;2023-06-19T02:14:29;95053.78;;;16.47;92.01
6423;BME280;3244;42.708;23.288;2023-06-19T02:16:55;95088.78;;;16.63;92.18
6423;BME280;3244;42.708;23.288;2023-06-19T02:19:22;95093.41;;;16.57;92.74
6423;BME280;3244;42.708;23.288;2023-06-19T02:21:49;95097.22;;;16.65;92.46
6423;BME280;3244;42.708;23.288;2023-06-19T02:24:15;95100.09;;;16.59;93.24
6423;BME280;3244;42.708;23.288;2023-06-19T02:26:43;95091.94;;;16.53;93.15
6423;BME280;3244;42.708;23.288;2023-06-19T02:29:10;95095.06;;;16.58;93.25
6423;BME280;3244;42.708;23.288;2023-06-19T02:31:38;95101.28;;;16.54;92.78
6423;BME280;3244;42.708;23.288;2023-06-19T02:34:05;95095.06;;;16.58;92.25
6423;BME280;3244;42.708;23.288;2023-06-19T02:36:31;95104.91;;;16.65;92.88
6423;BME280;3244;42.708;23.288;2023-06-19T02:38:58;95102.03;;;16.56;93.49
6423;BME280;3244;42.708;23.288;2023-06-19T02:41:25;95105.00;;;16.48;94.02
6423;BME280;3244;42.708;23.288;2023-06-19T02:43:52;95101.94;;;16.42;94.29
6423;BME280;3244;42.708;23.288;2023-06-19T02:46:18;95103.78;;;16.40;94.24
6423;BME280;3244;42.708;23.288;2023-06-19T02:48:46;95110.63;;;16.39;94.79
6423;BME280;3244;42.708;23.288;2023-06-19T02:51:13;95097.25;;;16.34;94.88
6423;BME280;3244;42.708;23.288;2023-06-19T02:53:40;95099.47;;;16.40;94.46
6423;BME280;3244;42.708;23.288;2023-06-19T02:56:07;95104.09;;;16.49;93.97
6423;BME280;3244;42.708;23.288;2023-06-19T02:58:34;95105.50;;;16.39;94.09
6423;BME280;3244;42.708;23.288;2023-06-19T03:01:02;95104.69;;;16.39;93.79
6423;BME280;3244;42.708;23.288;2023-06-19T03:03:32;95114.59;;;16.45;93.56
6423;BME280;3244;42.708;23.288;2023-06-19T03:06:04;95113.53;;;16.49;93.52
6423;BME280;3244;42.708;23.288;2023-06-19T03:08:33;95119.06;;;16.57;93.09
6423;BME280;3244;42.708;23.288;2023-06-19T03:10:59;95107.91;;;16.58;93.02
6423;BME280;3244;42.708;23.288;2023-06-19T03:13:29;95109.81;;;16.54;93.05
6423;BME280;3244;42.708;23.288;2023-06-19T03:15:56;95113.81;;;16.58;92.94
6423;BME280;3244;42.708;23.288;2023-06-19T03:18:22;95113.75;;;16.60;92.95
6423;BME280;3244;42.708;23.288;2023-06-19T03:20:49;95107.31;;;16.69;92.52
6423;BME280;3244;42.708;23.288;2023-06-19T03:23:17;95105.47;;;16.71;92.47
6423;BME280;3244;42.708;23.288;2023-06-19T03:25:44;95109.34;;;16.78;92.55
6423;BME280;3244;42.708;23.288;2023-06-19T03:28:11;95111.84;;;16.79;92.39
6423;BME280;3244;42.708;23.288;2023-06-19T03:30:37;95108.38;;;16.94;92.22
6423;BME280;3244;42.708;23.288;2023-06-19T03:33:04;95109.19;;;17.53;90.93
6423;BME280;3244;42.708;23.288;2023-06-19T03:35:31;95115.69;;;18.82;86.19
6423;BME280;3244;42.708;23.288;2023-06-19T03:37:57;95123.28;;;20.60;78.17
6423;BME280;3244;42.708;23.288;2023-06-19T03:40:25;95119.47;;;22.36;69.98
6423;BME280;3244;42.708;23.288;2023-06-19T03:42:53;95108.97;;;23.85;64.08
6423;BME280;3244;42.708;23.288;2023-06-19T03:45:19;95100.75;;;24.98;59.92
6423;BME280;3244;42.708;23.288;2023-06-19T03:47:46;95108.50;;;25.93;56.64
6423;BME280;3244;42.708;23.288;2023-06-19T03:50:13;95102.69;;;26.54;53.61
6423;BME280;3244;42.708;23.288;2023-06-19T03:52:39;95109.63;;;26.46;53.19
6423;BME280;3244;42.708;23.288;2023-06-19T03:55:07;95101.97;;;25.80;55.20
6423;BME280;3244;42.708;23.288;2023-06-19T03:57:35;95106.59;;;24.81;57.96
6423;BME280;3244;42.708;23.288;2023-06-19T04:00:02;95114.22;;;23.94;61.20
6423;BME280;3244;42.708;23.288;2023-06-19T04:02:32;95104.72;;;23.32;62.91
6423;BME280;3244;42.708;23.288;2023-06-19T04:04:59;95106.22;;;22.93;64.29
6423;BME280;3244;42.708;23.288;2023-06-19T04:07:26;95096.63;;;22.73;63.25
6423;BME280;3244;42.708;23.288;2023-06-19T04:09:53;95101.91;;;22.39;64.80
6423;BME280;3244;42.708;23.288;2023-06-19T04:12:19;95101.75;;;22.20;65.52
6423;BME280;3244;42.708;23.288;2023-06-19T04:14:47;95101.03;;;22.07;66.46
6423;BME280;3244;42.708;23.288;2023-06-19T04:17:14;95098.22;;;21.99;66.39
6423;BME280;3244;42.708;23.288;2023-06-19T04:19:41;95104.56;;;21.95;65.42
6423;BME280;3244;42.708;23.288;2023-06-19T04:22:08;95097.75;;;22.05;64.55
6423;BME280;3244;42.708;23.288;2023-06-19T04:24:35;95094.56;;;22.13;64.07
6423;BME280;3244;42.708;23.288;2023-06-19T04:27:02;95094.91;;;22.19;63.78
6423;BME280;3244;42.708;23.288;2023-06-19T04:29:29;95098.28;;;22.31;63.40
6423;BME280;3244;42.708;23.288;2023-06-19T04:31:58;95091.41;;;22.52;62.83
6423;BME280;3244;42.708;23.288;2023-06-19T04:34:25;95096.94;;;22.91;61.31
6423;BME280;3244;42.708;23.288;2023-06-19T04:36:51;95078.03;;;23.21;60.34
6423;BME280;3244;42.708;23.288;2023-06-19T04:39:18;95098.28;;;23.78;59.29
6423;BME280;3244;42.708;23.288;2023-06-19T04:41:46;95098.13;;;24.10;58.42
6423;BME280;3244;42.708;23.288;2023-06-19T04:44:13;95093.56;;;24.33;57.91
6423;BME280;3244;42.708;23.288;2023-06-19T04:46:40;95097.13;;;24.51;57.23
6423;BME280;3244;42.708;23.288;2023-06-19T04:49:08;95098.94;;;24.70;56.72
6423;BME280;3244;42.708;23.288;2023-06-19T04:51:35;95090.47;;;24.68;56.00
6423;BME280;3244;42.708;23.288;2023-06-19T04:54:02;95097.69;;;24.55;55.87
6423;BME280;3244;42.708;23.288;2023-06-19T04:56:29;95093.44;;;24.44;55.77
6423;BME280;3244;42.708;23.288;2023-06-19T04:58:56;95099.28;;;24.27;55.54
6423;BME280;3244;42.708;23.288;2023-06-19T05:01:25;95095.81;;;24.17;56.22
6423;BME280;3244;42.708;23.288;2023-06-19T05:03:54;95096.81;;;24.25;56.29
6423;BME280;3244;42.708;23.288;2023-06-19T05:06:23;95100.94;;;24.37;55.35
6423;BME280;3244;42.708;23.288;2023-06-19T05:08:49;95094.97;;;24.85;54.34
6423;BME280;3244;42.708;23.288;2023-06-19T05:11:16;95091.09;;;25.37;53.71
6423;BME280;3244;42.708;23.288;2023-06-19T05:13:43;95097.41;;;25.45;52.27
6423;BME280;3244;42.708;23.288;2023-06-19T05:16:10;95087.72;;;25.18;52.90
6423;BME280;3244;42.708;23.288;2023-06-19T05:18:41;95095.81;;;25.15;53.35
6423;BME280;3244;42.708;23.288;2023-06-19T05:21:08;95100.19;;;25.04;54.27
6423;BME280;3244;42.708;23.288;2023-06-19T05:23:36;95099.47;;;24.83;54.33
6423;BME280;3244;42.708;23.288;2023-06-19T05:26:03;95109.16;;;24.52;54.12
6423;BME280;3244;42.708;23.288;2023-06-19T05:28:30;95116.72;;;24.15;54.71
6423;BME280;3244;42.708;23.288;2023-06-19T05:30:56;95113.91;;;23.88;55.69
6423;BME280;3244;42.708;23.288;2023-06-19T05:33:23;95111.03;;;23.60;57.22
6423;BME280;3244;42.708;23.288;2023-06-19T05:35:50;95124.53;;;23.54;57.14
6423;BME280;3244;42.708;23.288;2023-06-19T05:38:19;95125.03;;;23.48;58.00
6423;BME280;3244;42.708;23.288;2023-06-19T05:40:47;95128.56;;;23.68;57.18
6423;BME280;3244;42.708;23.288;2023-06-19T05:43:13;95132.31;;;24.15;55.90
6423;BME280;3244;42.708;23.288;2023-06-19T05:45:40;95122.34;;;24.70;54.53
6423;BME280;3244;42.708;23.288;2023-06-19T05:48:07;95121.34;;;25.48;53.25
6423;BME280;3244;42.708;23.288;2023-06-19T05:50:34;95116.16;;;26.95;48.91
6423;BME280;3244;42.708;23.288;2023-06-19T05:53:00;95121.50;;;28.49;45.67
6423;BME280;3244;42.708;23.288;2023-06-19T05:55:27;95119.66;;;29.72;42.71
6423;BME280;3244;42.708;23.288;2023-06-19T05:57:55;95118.09;;;30.58;41.50
6423;BME280;3244;42.708;23.288;2023-06-19T06:00:22;95123.22;;;31.28;39.48
6423;BME280;3244;42.708;23.288;2023-06-19T06:02:49;95113.50;;;31.05;39.82
6423;BME280;3244;42.708;23.288;2023-06-19T06:05:17;95127.47;;;30.75;40.30
6423;BME280;3244;42.708;23.288;2023-06-19T06:07:44;95120.78;;;30.33;40.77
6423;BME280;3244;42.708;23.288;2023-06-19T06:10:11;95129.88;;;30.54;40.95
6423;BME280;3244;42.708;23.288;2023-06-19T06:12:37;95104.19;;;31.26;38.78
6423;BME280;3244;42.708;23.288;2023-06-19T06:15:06;95127.63;;;32.17;36.42
6423;BME280;3244;42.708;23.288;2023-06-19T06:17:33;95130.66;;;33.71;34.59
6423;BME280;3244;42.708;23.288;2023-06-19T06:20:00;95129.72;;;36.21;30.62
6423;BME280;3244;42.708;23.288;2023-06-19T06:22:27;95114.38;;;38.62;26.86
6423;BME280;3244;42.708;23.288;2023-06-19T06:24:53;95129.16;;;40.93;24.24
6423;BME280;3244;42.708;23.288;2023-06-19T06:27:20;95125.28;;;42.73;22.19
6423;BME280;3244;42.708;23.288;2023-06-19T06:29:47;95114.72;;;44.06;20.66
6423;BME280;3244;42.708;23.288;2023-06-19T06:32:15;95116.50;;;45.05;19.83
6423;BME280;3244;42.708;23.288;2023-06-19T06:34:41;95112.81;;;45.47;19.26
6423;BME280;3244;42.708;23.288;2023-06-19T06:37:08;95110.34;;;46.26;18.44
6423;BME280;3244;42.708;23.288;2023-06-19T06:39:35;95119.47;;;47.00;17.75
6423;BME280;3244;42.708;23.288;2023-06-19T06:42:02;95118.66;;;47.78;17.22
6423;BME280;3244;42.708;23.288;2023-06-19T06:44:28;95117.31;;;48.04;16.60
6423;BME280;3244;42.708;23.288;2023-06-19T06:46:55;95119.13;;;48.37;16.60
6423;BME280;3244;42.708;23.288;2023-06-19T06:49:23;95106.94;;;48.21;16.53
6423;BME280;3244;42.708;23.288;2023-06-19T06:51:50;95126.75;;;48.30;16.66
6423;BME280;3244;42.708;23.288;2023-06-19T06:54:16;95115.00;;;48.50;16.14
6423;BME280;3244;42.708;23.288;2023-06-19T06:56:43;95119.34;;;49.45;15.23
6423;BME280;3244;42.708;23.288;2023-06-19T06:59:13;95118.25;;;49.27;15.45
6423;BME280;3244;42.708;23.288;2023-06-19T07:01:41;95122.88;;;48.65;15.71
6423;BME280;3244;42.708;23.288;2023-06-19T07:04:08;95113.69;;;48.66;15.50
6423;BME280;3244;42.708;23.288;2023-06-19T07:06:36;95115.22;;;48.96;15.84
6423;BME280;3244;42.708;23.288;2023-06-19T07:09:02;95111.59;;;49.57;15.33
6423;BME280;3244;42.708;23.288;2023-06-19T07:11:29;95106.84;;;49.82;15.15
6423;BME280;3244;42.708;23.288;2023-06-19T07:13:56;95105.31;;;49.94;15.16
6423;BME280;3244;42.708;23.288;2023-06-19T07:16:22;95107.13;;;49.66;15.29
6423;BME280;3244;42.708;23.288;2023-06-19T07:18:49;95107.97;;;49.48;15.02
6423;BME280;3244;42.708;23.288;2023-06-19T07:21:16;95118.44;;;49.68;14.95
6423;BME280;3244;42.708;23.288;2023-06-19T07:23:45;95113.38;;;49.11;15.09
6423;BME280;3244;42.708;23.288;2023-06-19T07:26:13;95113.34;;;48.73;14.96
6423;BME280;3244;42.708;23.288;2023-06-19T07:28:40;95115.78;;;49.12;15.21
6423;BME280;3244;42.708;23.288;2023-06-19T07:31:07;95112.75;;;50.16;14.39
6423;BME280;3244;42.708;23.288;2023-06-19T07:33:33;95111.94;;;50.16;13.88
6423;BME280;3244;42.708;23.288;2023-06-19T07:36:01;95117.16;;;50.26;14.02
6423;BME280;3244;42.708;23.288;2023-06-19T07:38:28;95124.66;;;49.69;14.52
6423;BME280;3244;42.708;23.288;2023-06-19T07:40:56;95124.84;;;50.05;13.70
6423;BME280;3244;42.708;23.288;2023-06-19T07:43:23;95110.84;;;50.17;13.85
6423;BME280;3244;42.708;23.288;2023-06-19T07:45:50;95116.66;;;49.78;14.67
6423;BME280;3244;42.708;23.288;2023-06-19T07:48:16;95115.34;;;49.43;14.40
6423;BME280;3244;42.708;23.288;2023-06-19T07:50:43;95115.78;;;48.93;15.02
6423;BME280;3244;42.708;23.288;2023-06-19T07:53:11;95111.28;;;48.65;15.24
6423;BME280;3244;42.708;23.288;2023-06-19T07:55:38;95114.03;;;49.02;15.07
6423;BME280;3244;42.708;23.288;2023-06-19T07:58:06;95116.28;;;49.33;14.80
6423;BME280;3244;42.708;23.288;2023-06-19T08:00:32;95119.44;;;49.40;14.72
6423;BME280;3244;42.708;23.288;2023-06-19T08:02:59;95122.84;;;49.64;14.28
6423;BME280;3244;42.708;23.288;2023-06-19T08:05:26;95122.13;;;50.05;14.15
6423;BME280;3244;42.708;23.288;2023-06-19T08:07:52;95115.97;;;49.86;14.05
6423;BME280;3244;42.708;23.288;2023-06-19T08:10:19;95112.03;;;49.64;14.42
6423;BME280;3244;42.708;23.288;2023-06-19T08:12:46;95114.66;;;49.69;14.64
6423;BME280;3244;42.708;23.288;2023-06-19T08:15:14;95111.09;;;49.88;14.73
6423;BME280;3244;42.708;23.288;2023-06-19T08:17:41;95113.16;;;50.51;14.03
6423;BME280;3244;42.708;23.288;2023-06-19T08:20:08;95107.94;;;50.13;14.07
6423;BME280;3244;42.708;23.288;2023-06-19T08:22:36;95119.63;;;49.62;13.95
6423;BME280;3244;42.708;23.288;2023-06-19T08:25:03;95113.16;;;49.26;13.91
6423;BME280;3244;42.708;23.288;2023-06-19T08:27:30;95112.16;;;48.07;14.81
6423;BME280;3244;42.708;23.288;2023-06-19T08:29:57;95111.63;;;48.34;14.60
6423;BME280;3244;42.708;23.288;2023-06-19T08:32:25;95119.25;;;48.27;14.79
6423;BME280;3244;42.708;23.288;2023-06-19T08:34:52;95121.75;;;48.90;14.45
6423;BME280;3244;42.708;23.288;2023-06-19T08:37:18;95114.25;;;48.39;14.34
6423;BME280;3244;42.708;23.288;2023-06-19T08:39:45;95114.72;;;48.47;14.80
6423;BME280;3244;42.708;23.288;2023-06-19T08:42:12;95118.56;;;48.17;14.84
6423;BME280;3244;42.708;23.288;2023-06-19T08:44:38;95118.97;;;48.53;14.47
6423;BME280;3244;42.708;23.288;2023-06-19T08:47:06;95103.72;;;48.19;14.46
6423;BME280;3244;42.708;23.288;2023-06-19T08:49:35;95101.84;;;47.91;14.27
6423;BME280;3244;42.708;23.288;2023-06-19T08:52:02;95107.00;;;47.53;14.78
6423;BME280;3244;42.708;23.288;2023-06-19T08:54:29;95105.53;;;48.00;14.82
6423;BME280;3244;42.708;23.288;2023-06-19T08:56:56;95102.06;;;47.65;14.78
6423;BME280;3244;42.708;23.288;2023-06-19T08:59:26;95095.78;;;47.46;14.97
6423;BME280;3244;42.708;23.288;2023-06-19T09:01:54;95105.22;;;47.72;14.29
6423;BME280;3244;42.708;23.288;2023-06-19T09:04:23;95111.84;;;46.68;14.79
6423;BME280;3244;42.708;23.288;2023-06-19T09:06:54;95109.25;;;46.37;15.12
6423;BME280;3244;42.708;23.288;2023-06-19T09:09:23;95101.09;;;46.58;14.71
6423;BME280;3244;42.708;23.288;2023-06-19T09:12:00;95100.66;;;46.95;15.26
6423;BME280;3244;42.708;23.288;2023-06-19T09:14:34;95100.34;;;47.40;14.58
6423;BME280;3244;42.708;23.288;2023-06-19T09:17:02;95102.69;;;46.64;15.16
6423;BME280;3244;42.708;23.288;2023-06-19T09:19:29;95096.31;;;46.45;14.98
6423;BME280;3244;42.708;23.288;2023-06-19T09:22:02;95093.91;;;44.81;16.54
6423;BME280;3244;42.708;23.288;2023-06-19T09:24:33;95103.22;;;43.68;16.87
6423;BME280;3244;42.708;23.288;2023-06-19T09:27:06;95103.19;;;42.17;18.36
6423;BME280;3244;42.708;23.288;2023-06-19T09:29:36;95100.84;;;40.75;19.18
6423;BME280;3244;42.708;23.288;2023-06-19T09:32:14;95101.16;;;40.15;19.96
6423;BME280;3244;42.708;23.288;2023-06-19T09:34:41;95101.19;;;39.68;20.42
6423;BME280;3244;42.708;23.288;2023-06-19T09:37:09;95100.13;;;39.04;21.39
6423;BME280;3244;42.708;23.288;2023-06-19T09:39:37;95095.13;;;38.48;22.15
6423;BME280;3244;42.708;23.288;2023-06-19T09:42:06;95099.06;;;37.59;22.99
6423;BME280;3244;42.708;23.288;2023-06-19T09:44:39;95113.06;;;36.27;24.42
6423;BME280;3244;42.708;23.288;2023-06-19T09:47:14;95106.78;;;35.16;25.84
6423;BME280;3244;42.708;23.288;2023-06-19T09:49:48;95099.47;;;34.03;27.73
6423;BME280;3244;42.708;23.288;2023-06-19T09:52:18;95096.34;;;32.94;28.92
6423;BME280;3244;42.708;23.288;2023-06-19T09:54:49;95104.66;;;31.67;30.97
6423;BME280;3244;42.708;23.288;2023-06-19T09:57:16;95100.50;;;30.89;32.28
6423;BME280;3244;42.708;23.288;2023-06-19T09:59:46;95106.03;;;29.93;34.06
6423;BME280;3244;42.708;23.288;2023-06-19T10:02:15;95103.16;;;29.48;34.68
6423;BME280;3244;42.708;23.288;2023-06-19T10:04:43;95098.59;;;29.09;36.11
6423;BME280;3244;42.708;23.288;2023-06-19T10:07:21;95099.94;;;28.55;37.34
6423;BME280;3244;42.708;23.288;2023-06-19T10:09:58;95099.22;;;28.20;38.13
6423;BME280;3244;42.708;23.288;2023-06-19T10:12:36;95092.84;;;27.89;38.99
6423;BME280;3244;42.708;23.288;2023-06-19T10:15:15;95088.53;;;27.80;38.93
6423;BME280;3244;42.708;23.288;2023-06-19T10:17:44;95093.56;;;27.73;39.28
6423;BME280;3244;42.708;23.288;2023-06-19T10:20:26;95087.69;;;27.45;38.63
6423;BME280;3244;42.708;23.288;2023-06-19T10:22:59;95095.38;;;27.29;38.88
6423;BME280;3244;42.708;23.288;2023-06-19T10:25:31;95093.13;;;27.34;39.70
6423;BME280;3244;42.708;23.288;2023-06-19T10:27:58;95084.34;;;27.35;39.20
6423;BME280;3244;42.708;23.288;2023-06-19T10:30:26;95089.72;;;27.33;39.08
6423;BME280;3244;42.708;23.288;2023-06-19T10:32:53;95083.88;;;27.14;39.34
6423;BME280;3244;42.708;23.288;2023-06-19T10:35:19;95089.38;;;27.10;39.39
6423;BME280;3244;42.708;23.288;2023-06-19T10:37:49;95088.78;;;27.17;39.12
6423;BME280;3244;42.708;23.288;2023-06-19T10:40:17;95080.88;;;27.08;39.48
6423;BME280;3244;42.708;23.288;2023-06-19T10:42:44;95079.34;;;27.24;41.17
6423;BME280;3244;42.708;23.288;2023-06-19T10:45:12;95078.53;;;27.41;39.92
6423;BME280;3244;42.708;23.288;2023-06-19T10:47:41;95081.75;;;27.61;41.22
6423;BME280;3244;42.708;23.288;2023-06-19T10:50:12;95084.06;;;27.64;40.00
6423;BME280;3244;42.708;23.288;2023-06-19T10:52:43;95077.94;;;27.55;41.29
6423;BME280;3244;42.708;23.288;2023-06-19T10:55:11;95080.25;;;27.32;41.45
6423;BME280;3244;42.708;23.288;2023-06-19T10:57:39;95086.63;;;26.94;42.66
6423;BME280;3244;42.708;23.288;2023-06-19T11:00:07;95090.81;;;26.69;42.77
6423;BME280;3244;42.708;23.288;2023-06-19T11:02:38;95083.28;;;26.66;43.35
6423;BME280;3244;42.708;23.288;2023-06-19T11:05:09;95075.59;;;27.00;42.89
6423;BME280;3244;42.708;23.288;2023-06-19T11:07:36;95068.09;;;27.41;42.08
6423;BME280;3244;42.708;23.288;2023-06-19T11:10:04;95070.19;;;27.63;41.65
6423;BME280;3244;42.708;23.288;2023-06-19T11:12:32;95064.94;;;27.89;40.87
6423;BME280;3244;42.708;23.288;2023-06-19T11:15:03;95063.09;;;28.24;41.15
6423;BME280;3244;42.708;23.288;2023-06-19T11:17:30;95067.91;;;28.36;39.61
6423;BME280;3244;42.708;23.288;2023-06-19T11:19:57;95061.38;;;28.49;41.21
6423;BME280;3244;42.708;23.288;2023-06-19T11:22:36;95056.06;;;28.16;40.91
6423;BME280;3244;42.708;23.288;2023-06-19T11:25:04;95057.03;;;28.15;41.34
6423;BME280;3244;42.708;23.288;2023-06-19T11:27:31;95065.00;;;28.05;41.80
6423;BME280;3244;42.708;23.288;2023-06-19T11:29:58;95056.84;;;27.74;41.98
6423;BME280;3244;42.708;23.288;2023-06-19T11:32:32;95063.91;;;27.82;42.86
6423;BME280;3244;42.708;23.288;2023-06-19T11:35:04;95037.34;;;27.87;42.13
6423;BME280;3244;42.708;23.288;2023-06-19T11:37:32;95046.84;;;28.04;42.17
6423;BME280;3244;42.708;23.288;2023-06-19T11:39:59;95052.41;;;28.01;42.51
6423;BME280;3244;42.708;23.288;2023-06-19T11:42:28;95043.06;;;27.98;42.02
6423;BME280;3244;42.708;23.288;2023-06-19T11:44:55;95047.63;;;28.30;41.01
6423;BME280;3244;42.708;23.288;2023-06-19T11:47:23;95043.91;;;28.41;41.66
6423;BME280;3244;42.708;23.288;2023-06-19T11:49:51;95052.47;;;28.17;41.79
6423;BME280;3244;42.708;23.288;2023-06-19T11:52:18;95040.97;;;27.94;42.12
6423;BME280;3244;42.708;23.288;2023-06-19T11:54:45;95042.44;;;28.04;42.04
6423;BME280;3244;42.708;23.288;2023-06-19T11:57:11;95045.31;;;28.27;41.41
6423;BME280;3244;42.708;23.288;2023-06-19T11:59:38;95038.69;;;28.57;41.94
6423;BME280;3244;42.708;23.288;2023-06-19T12:02:06;95042.94;;;28.66;41.04
6423;BME280;3244;42.708;23.288;2023-06-19T12:04:32;95044.09;;;28.80;41.81
6423;BME280;3244;42.708;23.288;2023-06-19T12:07:01;95040.66;;;28.79;41.60
6423;BME280;3244;42.708;23.288;2023-06-19T12:09:29;95037.72;;;28.74;41.89
6423;BME280;3244;42.708;23.288;2023-06-19T12:11:57;95049.47;;;28.54;41.81
6423;BME280;3244;42.708;23.288;2023-06-19T12:14:23;95031.47;;;28.43;42.24
6423;BME280;3244;42.708;23.288;2023-06-19T12:16:51;95030.66;;;28.42;42.33
6423;BME280;3244;42.708;23.288;2023-06-19T12:19:18;95043.06;;;28.32;42.39
6423;BME280;3244;42.708;23.288;2023-06-19T12:21:45;95037.22;;;28.04;42.54
6423;BME280;3244;42.708;23.288;2023-06-19T12:24:13;95029.19;;;27.98;43.18
6423;BME280;3244;42.708;23.288;2023-06-19T12:26:40;95034.38;;;27.82;43.28
6423;BME280;3244;42.708;23.288;2023-06-19T12:29:06;95024.84;;;27.38;44.08
6423;BME280;3244;42.708;23.288;2023-06-19T12:31:34;95032.81;;;26.93;45.07
6423;BME280;3244;42.708;23.288;2023-06-19T12:34:01;95034.53;;;27.02;44.87
6423;BME280;3244;42.708;23.288;2023-06-19T12:36:28;95029.22;;;27.12;44.67
6423;BME280;3244;42.708;23.288;2023-06-19T12:38:58;95030.59;;;27.24;44.83
6423;BME280;3244;42.708;23.288;2023-06-19T12:41:26;95038.34;;;27.34;44.61
6423;BME280;3244;42.708;23.288;2023-06-19T12:43:53;95026.72;;;27.28;44.17
6423;BME280;3244;42.708;23.288;2023-06-19T12:46:20;95019.63;;;27.13;43.87
6423;BME280;3244;42.708;23.288;2023-06-19T12:48:46;95035.16;;;27.22;43.84
6423;BME280;3244;42.708;23.288;2023-06-19T12:51:16;95025.38;;;26.98;43.89
6423;BME280;3244;42.708;23.288;2023-06-19T12:53:43;95028.59;;;26.92;43.78
6423;BME280;3244;42.708;23.288;2023-06-19T12:56:10;95028.31;;;26.95;43.64
6423;BME280;3244;42.708;23.288;2023-06-19T12:58:38;95034.22;;;27.05;43.07
6423;BME280;3244;42.708;23.288;2023-06-19T13:01:04;95032.59;;;27.04;43.42
6423;BME280;3244;42.708;23.288;2023-06-19T13:03:31;95030.34;;;27.09;43.31
6423;BME280;3244;42.708;23.288;2023-06-19T13:05:57;95028.72;;;27.34;42.75
6423;BME280;3244;42.708;23.288;2023-06-19T13:08:24;95028.41;;;27.63;41.41
6423;BME280;3244;42.708;23.288;2023-06-19T13:10:51;95006.56;;;27.64;41.52
6423;BME280;3244;42.708;23.288;2023-06-19T13:13:18;95023.56;;;27.51;41.58